createdAt,value
2018-02-09T00:00:42.050Z,139.17
2018-02-09T00:03:09.689Z,130.37
2018-02-09T00:05:37.420Z,132.93
2018-02-09T00:08:05.814Z,131.53
2018-02-09T00:10:33.438Z,137.33
2018-02-09T00:13:01.065Z,134.33
2018-02-09T00:15:28.690Z,142.43
2018-02-09T00:17:57.108Z,126.87
2018-02-09T00:20:24.728Z,140.73
2018-02-09T00:22:53.215Z,143.47
2018-02-09T00:25:20.835Z,130.93
2018-02-09T00:27:48.479Z,144.00
2018-02-09T00:30:16.135Z,134.10
2018-02-09T00:32:44.663Z,149.57
2018-02-09T00:35:12.660Z,146.13
2018-02-09T00:37:40.285Z,140.67
2018-02-09T00:40:07.938Z,138.63
2018-02-09T00:42:35.592Z,148.87
2018-02-09T00:45:03.179Z,126.70
2018-02-09T00:47:30.861Z,145.87
2018-02-09T00:49:58.501Z,134.53
2018-02-09T00:52:26.915Z,150.43
2018-02-09T00:54:54.543Z,143.83
2018-02-09T00:57:22.958Z,137.97
2018-02-09T00:59:50.608Z,149.40
2018-02-09T01:02:19.001Z,126.37
2018-02-09T01:04:46.658Z,147.13
2018-02-09T01:07:15.101Z,140.77
2018-02-09T01:09:42.949Z,157.83
2018-02-09T01:12:10.602Z,143.63
2018-02-09T01:14:38.214Z,153.17
2018-02-09T01:17:05.854Z,140.13
2018-02-09T01:19:33.482Z,143.20
2018-02-09T01:22:01.935Z,147.73
2018-02-09T01:24:30.332Z,143.50
2018-02-09T01:26:57.974Z,127.87
2018-02-09T01:29:25.597Z,150.87
2018-02-09T01:31:53.208Z,123.80
2018-02-09T01:34:20.866Z,145.67
2018-02-09T01:36:48.485Z,138.90
2018-02-09T01:39:16.892Z,148.70
2018-02-09T01:41:44.601Z,128.80
2018-02-09T01:44:12.194Z,146.73
2018-02-09T01:46:40.623Z,142.17
2018-02-09T01:49:08.247Z,153.60
2018-02-09T01:51:36.689Z,151.63
2018-02-09T01:54:04.296Z,142.67
2018-02-09T01:56:32.732Z,137.10
2018-02-09T01:59:00.340Z,145.20
2018-02-09T02:01:28.718Z,142.00
2018-02-09T02:03:57.126Z,134.37
2018-02-09T02:06:24.763Z,132.70
2018-02-09T02:08:52.399Z,136.43
2018-02-09T02:11:20.044Z,134.73
2018-02-09T02:13:47.661Z,136.50
2018-02-09T02:16:15.309Z,145.67
2018-02-09T02:18:42.924Z,156.47
2018-02-09T02:21:10.589Z,150.03
2018-02-09T02:23:38.221Z,142.53
2018-02-09T02:26:05.837Z,157.77
2018-02-09T02:28:33.581Z,140.73
2018-02-09T02:31:01.965Z,144.93
2018-02-09T02:33:30.381Z,145.03
2018-02-09T02:35:58.054Z,147.60
2018-02-09T02:38:25.692Z,169.57
2018-02-09T02:40:53.473Z,147.80
2018-02-09T02:43:21.052Z,148.67
2018-02-09T02:45:48.676Z,146.13
2018-02-09T02:48:17.055Z,145.47
2018-02-09T02:50:44.832Z,139.47
2018-02-09T02:53:13.228Z,143.87
2018-02-09T02:55:40.854Z,130.53
2018-02-09T02:58:08.523Z,141.20
2018-02-09T03:00:36.142Z,143.07
2018-02-09T03:03:03.797Z,144.07
2018-02-09T03:05:31.445Z,131.90
2018-02-09T03:07:59.872Z,146.20
2018-02-09T03:10:27.527Z,145.20
2018-02-09T03:12:55.136Z,146.63
2018-02-09T03:15:22.781Z,126.13
2018-02-09T03:17:50.411Z,134.47
2018-02-09T03:20:18.821Z,136.10
2018-02-09T03:22:46.448Z,136.20
2018-02-09T03:25:14.826Z,141.87
2018-02-09T03:27:43.248Z,131.23
2018-02-09T03:30:10.867Z,136.00
2018-02-09T03:32:38.508Z,125.23
2018-02-09T03:35:06.139Z,133.03
2018-02-09T03:37:33.794Z,145.87
2018-02-09T03:40:02.206Z,132.50
2018-02-09T03:42:29.940Z,144.83
2018-02-09T03:44:58.352Z,141.27
2018-02-09T03:47:25.973Z,129.40
2018-02-09T03:49:53.633Z,133.67
2018-02-09T03:52:21.265Z,142.87
2018-02-09T03:54:48.876Z,148.10
2018-02-09T03:57:16.553Z,138.23
2018-02-09T03:59:44.996Z,128.90
2018-02-09T04:02:12.651Z,133.60
2018-02-09T04:04:40.323Z,147.50
2018-02-09T04:07:07.959Z,141.00
2018-02-09T04:09:35.713Z,144.90
2018-02-09T04:12:04.223Z,143.17
2018-02-09T04:14:31.835Z,137.60
2018-02-09T04:16:59.471Z,131.47
2018-02-09T04:19:27.096Z,156.93
2018-02-09T04:21:55.495Z,148.87
2018-02-09T04:24:23.176Z,150.10
2018-02-09T04:26:50.805Z,131.57
2018-02-09T04:29:19.196Z,136.13
2018-02-09T04:31:47.591Z,124.50
2018-02-09T04:34:15.963Z,123.50
2018-02-09T04:36:44.404Z,123.07
2018-02-09T04:39:12.017Z,127.60
2018-02-09T04:41:40.430Z,132.67
2018-02-09T04:44:08.127Z,130.53
2018-02-09T04:46:35.762Z,150.47
2018-02-09T04:49:03.426Z,147.73
2018-02-09T04:51:31.052Z,137.77
2018-02-09T04:54:18.139Z,147.73
2018-02-09T04:56:45.777Z,145.07
2018-02-09T04:59:13.792Z,158.60
2018-02-09T05:01:41.390Z,136.10
2018-02-09T05:04:09.809Z,146.00
2018-02-09T05:06:37.519Z,146.93
2018-02-09T05:09:05.926Z,137.63
2018-02-09T05:11:33.584Z,137.20
2018-02-09T05:14:01.252Z,137.83
2018-02-09T05:16:29.273Z,156.57
2018-02-09T05:18:57.699Z,136.87
2018-02-09T05:21:25.333Z,150.10
2018-02-09T05:23:54.014Z,138.27
2018-02-09T05:26:21.626Z,146.93
2018-02-09T05:28:49.267Z,146.43
2018-02-09T05:31:17.650Z,145.07
2018-02-09T05:33:45.270Z,152.23
2018-02-09T05:36:12.904Z,146.60
2018-02-09T05:38:41.294Z,148.13
2018-02-09T05:41:09.704Z,145.83
2018-02-09T05:43:37.303Z,164.43
2018-02-09T05:46:04.939Z,151.43
2018-02-09T05:48:32.551Z,168.70
2018-02-09T05:51:00.186Z,151.87
2018-02-09T05:53:27.792Z,143.00
2018-02-09T05:55:56.171Z,166.00
2018-02-09T05:58:23.791Z,165.77
2018-02-09T06:00:51.422Z,165.47
2018-02-09T06:03:19.809Z,157.93
2018-02-09T06:05:47.434Z,153.03
2018-02-09T06:08:15.046Z,148.10
2018-02-09T06:10:42.676Z,147.70
2018-02-09T06:13:11.068Z,159.40
2018-02-09T06:15:39.516Z,159.83
2018-02-09T06:18:07.111Z,148.33
2018-02-09T06:20:34.721Z,156.37
2018-02-09T06:23:02.343Z,140.43
2018-02-09T06:25:29.952Z,137.83
2018-02-09T06:27:57.934Z,146.80
2018-02-09T06:30:25.546Z,143.23
2018-02-09T06:32:54.679Z,143.37
2018-02-09T06:35:22.316Z,144.77
2018-02-09T06:37:49.935Z,132.13
2018-02-09T06:40:17.573Z,134.33
2018-02-09T06:42:45.964Z,158.70
2018-02-09T06:45:13.608Z,156.30
2018-02-09T06:47:41.978Z,143.93
2018-02-09T06:50:11.090Z,141.67
2018-02-09T06:52:39.486Z,147.03
2018-02-09T06:55:07.870Z,143.40
2018-02-09T06:57:36.379Z,142.03
2018-02-09T07:00:03.968Z,142.73
2018-02-09T07:02:31.588Z,146.97
2018-02-09T07:05:00.007Z,145.37
2018-02-09T07:07:27.612Z,137.10
2018-02-09T07:09:56.259Z,148.43
2018-02-09T07:12:23.874Z,152.80
2018-02-09T07:14:51.491Z,151.83
2018-02-09T07:17:20.056Z,162.40
2018-02-09T07:19:47.684Z,133.10
2018-02-09T07:22:16.813Z,140.83
2018-02-09T07:24:45.188Z,150.37
2018-02-09T07:27:13.707Z,156.53
2018-02-09T07:29:41.455Z,151.67
2018-02-09T07:32:09.091Z,140.17
2018-02-09T07:34:36.715Z,142.27
2018-02-09T07:37:04.340Z,146.00
2018-02-09T07:39:32.732Z,140.10
2018-02-09T07:42:01.097Z,135.87
2018-02-09T07:44:28.727Z,136.23
2018-02-09T07:46:56.419Z,144.77
2018-02-09T07:49:24.208Z,143.17
2018-02-09T07:51:52.596Z,144.97
2018-02-09T07:54:20.974Z,135.03
2018-02-09T07:56:49.475Z,138.40
2018-02-09T07:59:17.083Z,140.37
2018-02-09T08:01:44.706Z,132.47
2018-02-09T08:04:12.321Z,134.83
2018-02-09T08:06:40.021Z,133.57
2018-02-09T08:09:08.409Z,135.27
2018-02-09T08:11:36.773Z,137.77
2018-02-09T08:14:05.260Z,132.40
2018-02-09T08:16:34.478Z,134.37
2018-02-09T08:19:02.862Z,141.27
2018-02-09T08:21:31.416Z,141.10
2018-02-09T08:24:01.101Z,132.10
2018-02-09T08:26:28.795Z,139.30
2018-02-09T08:28:56.403Z,153.13
2018-02-09T08:31:24.788Z,141.97
2018-02-09T08:33:53.248Z,137.13
2018-02-09T08:36:20.872Z,139.33
2018-02-09T08:38:48.458Z,137.50
2018-02-09T08:41:16.104Z,143.43
2018-02-09T08:43:43.696Z,148.40
2018-02-09T08:46:11.297Z,147.87
2018-02-09T08:48:39.844Z,144.73
2018-02-09T08:51:07.502Z,137.23
2018-02-09T08:53:35.114Z,133.00
2018-02-09T08:56:02.776Z,137.17
2018-02-09T08:58:31.162Z,133.17
2018-02-09T09:00:59.550Z,133.67
2018-02-09T09:03:27.902Z,142.57
2018-02-09T09:05:57.030Z,120.57
2018-02-09T09:08:25.453Z,123.97
2018-02-09T09:10:53.072Z,134.60
2018-02-09T09:13:20.681Z,139.93
2018-02-09T09:15:48.573Z,140.47
2018-02-09T09:18:16.154Z,135.90
2018-02-09T09:20:43.760Z,132.20
2018-02-09T09:23:11.498Z,136.43
2018-02-09T09:25:39.093Z,132.47
2018-02-09T09:28:07.487Z,121.80
2018-02-09T09:30:35.097Z,111.53
2018-02-09T09:33:02.755Z,106.00
2018-02-09T09:35:30.370Z,119.63
2018-02-09T09:37:57.980Z,105.90
2018-02-09T09:40:25.609Z,107.27
2018-02-09T09:42:53.204Z,113.27
2018-02-09T09:45:21.175Z,105.17
2018-02-09T09:47:48.781Z,115.43
2018-02-09T09:50:16.400Z,121.43
2018-02-09T09:52:44.010Z,102.43
2018-02-09T09:55:11.635Z,102.77
2018-02-09T09:57:39.262Z,105.37
2018-02-09T10:00:07.627Z,103.57
2018-02-09T10:02:40.551Z,111.37
2018-02-09T10:05:08.188Z,105.83
2018-02-09T10:07:35.818Z,86.80
2018-02-09T10:10:03.412Z,75.97
2018-02-09T10:12:31.029Z,78.23
2018-02-09T10:14:58.674Z,73.73
2018-02-09T10:17:26.278Z,74.27
2018-02-09T10:19:53.988Z,70.67
2018-02-09T10:22:22.355Z,70.93
2018-02-09T10:24:51.501Z,78.00
2018-02-09T10:27:19.131Z,73.10
2018-02-09T10:29:46.722Z,70.20
2018-02-09T10:32:14.344Z,72.20
2018-02-09T10:34:41.970Z,55.10
2018-02-09T10:37:09.590Z,63.70
2018-02-09T10:39:37.300Z,64.20
2018-02-09T10:42:04.918Z,55.47
2018-02-09T10:44:34.037Z,54.97
2018-02-09T10:47:02.486Z,52.30
2018-02-09T10:49:30.109Z,46.90
2018-02-09T10:51:57.722Z,58.37
2018-02-09T10:54:25.354Z,51.80
2018-02-09T10:56:52.970Z,57.47
2018-02-09T10:59:21.362Z,52.87
2018-02-09T11:01:49.278Z,54.00
2018-02-09T11:04:16.936Z,56.20
2018-02-09T11:06:44.561Z,59.77
2018-02-09T11:09:12.936Z,52.53
2018-02-09T11:11:40.710Z,45.20
2018-02-09T11:14:09.104Z,59.10
2018-02-09T11:16:36.731Z,60.07
2018-02-09T11:19:04.357Z,53.97
2018-02-09T11:21:32.001Z,58.93
2018-02-09T11:23:59.600Z,54.90
2018-02-09T11:26:27.223Z,54.27
2018-02-09T11:28:56.466Z,49.37
2018-02-09T11:31:24.127Z,56.57
2018-02-09T11:33:51.721Z,54.17
2018-02-09T11:36:19.315Z,47.70
2018-02-09T11:38:48.553Z,50.50
2018-02-09T11:41:16.940Z,50.97
2018-02-09T11:43:45.347Z,45.77
2018-02-09T11:46:13.737Z,46.13
2018-02-09T11:48:41.344Z,47.27
2018-02-09T11:51:08.979Z,47.60
2018-02-09T11:53:36.596Z,44.47
2018-02-09T11:56:05.075Z,45.67
2018-02-09T11:58:33.637Z,56.17
2018-02-09T12:01:02.035Z,54.23
2018-02-09T12:03:30.467Z,53.03
2018-02-09T12:05:58.153Z,54.70
2018-02-09T12:08:25.765Z,53.50
2018-02-09T12:10:54.140Z,50.37
2018-02-09T12:13:21.786Z,53.87
2018-02-09T12:15:49.410Z,52.43
2018-02-09T12:18:17.145Z,51.37
2018-02-09T12:20:45.531Z,56.27
2018-02-09T12:23:13.942Z,50.03
2018-02-09T12:25:41.569Z,60.30
2018-02-09T12:28:09.934Z,65.67
2018-02-09T12:30:37.568Z,57.07
2018-02-09T12:33:05.178Z,45.67
2018-02-09T12:35:32.848Z,49.40
2018-02-09T12:38:00.463Z,52.50
2018-02-09T12:40:28.128Z,51.13
2018-02-09T12:42:55.758Z,45.17
2018-02-09T12:45:24.153Z,47.90
2018-02-09T12:47:52.697Z,55.00
2018-02-09T12:50:20.369Z,43.80
2018-02-09T12:52:48.053Z,53.50
2018-02-09T12:55:15.655Z,55.20
2018-02-09T12:57:43.255Z,61.93
2018-02-09T13:00:10.865Z,66.23
2018-02-09T13:02:39.244Z,68.50
2018-02-09T13:05:07.665Z,57.73
2018-02-09T13:07:35.512Z,59.27
2018-02-09T13:10:03.915Z,61.43
2018-02-09T13:12:43.407Z,68.17
2018-02-09T13:15:11.078Z,60.77
2018-02-09T13:17:38.696Z,68.07
2018-02-09T13:20:06.334Z,62.47
2018-02-09T13:22:46.554Z,60.13
2018-02-09T13:25:14.190Z,61.40
2018-02-09T13:27:41.807Z,57.63
2018-02-09T13:30:10.188Z,61.17
2018-02-09T13:32:50.414Z,60.27
2018-02-09T13:35:18.047Z,69.40
2018-02-09T13:37:45.822Z,62.37
2018-02-09T13:40:13.459Z,72.43
2018-02-09T13:42:41.884Z,68.30
2018-02-09T13:45:09.493Z,63.10
2018-02-09T13:47:37.334Z,63.70
2018-02-09T13:50:04.959Z,63.00
2018-02-09T13:52:32.583Z,64.60
2018-02-09T13:55:00.219Z,70.87
2018-02-09T13:57:27.820Z,67.90
2018-02-09T13:59:55.479Z,64.17
2018-02-09T14:02:23.075Z,69.80
2018-02-09T14:04:50.742Z,77.10
2018-02-09T14:07:18.400Z,63.63
2018-02-09T14:09:46.838Z,65.23
2018-02-09T14:12:14.437Z,70.17
2018-02-09T14:14:42.816Z,71.53
2018-02-09T14:17:10.868Z,75.13
2018-02-09T14:19:38.500Z,80.90
2018-02-09T14:22:06.127Z,79.87
2018-02-09T14:24:33.742Z,54.03
2018-02-09T14:27:01.342Z,54.80
2018-02-09T14:29:29.023Z,71.03
2018-02-09T14:31:56.606Z,70.93
2018-02-09T14:34:25.209Z,57.80
2018-02-09T14:36:52.964Z,60.10
2018-02-09T14:39:21.335Z,80.57
2018-02-09T14:41:49.731Z,82.00
2018-02-09T14:44:18.139Z,75.40
2018-02-09T14:46:46.148Z,85.93
2018-02-09T14:49:13.794Z,75.33
2018-02-09T14:51:41.500Z,66.80
2018-02-09T14:54:09.142Z,62.97
2018-02-09T14:56:37.493Z,56.30
2018-02-09T14:59:05.244Z,56.40
2018-02-09T15:01:33.619Z,62.23
2018-02-09T15:04:02.005Z,70.20
2018-02-09T15:06:30.413Z,82.13
2018-02-09T15:08:58.050Z,77.83
2018-02-09T15:11:26.445Z,88.03
2018-02-09T15:13:54.813Z,77.17
2018-02-09T15:16:23.196Z,80.30
2018-02-09T15:18:51.579Z,74.47
2018-02-09T15:21:19.979Z,73.37
2018-02-09T15:23:48.349Z,71.93
2018-02-09T15:26:16.738Z,71.43
2018-02-09T15:28:45.376Z,79.10
2018-02-09T15:31:12.985Z,83.00
2018-02-09T15:33:41.408Z,79.27
2018-02-09T15:36:09.034Z,80.27
2018-02-09T15:38:37.422Z,75.23
2018-02-09T15:41:05.802Z,71.17
2018-02-09T15:43:34.290Z,74.33
2018-02-09T15:46:02.729Z,89.53
2018-02-09T15:48:30.353Z,73.40
2018-02-09T15:50:58.774Z,119.70
2018-02-09T15:53:26.388Z,75.23
2018-02-09T15:55:54.915Z,71.47
2018-02-09T15:58:22.588Z,89.23
2018-02-09T16:00:50.384Z,115.67
2018-02-09T16:03:18.066Z,81.27
2018-02-09T16:05:45.687Z,75.27
2018-02-09T16:08:14.099Z,118.07
2018-02-09T16:10:41.764Z,78.63
2018-02-09T16:13:09.438Z,95.13
2018-02-09T16:15:38.635Z,80.07
2018-02-09T16:18:06.324Z,66.07
2018-02-09T16:20:34.787Z,69.57
2018-02-09T16:23:03.929Z,77.53
2018-02-09T16:25:31.868Z,72.30
2018-02-09T16:27:59.515Z,70.93
2018-02-09T16:30:27.188Z,75.47
2018-02-09T16:32:54.859Z,76.53
2018-02-09T16:35:22.471Z,88.27
2018-02-09T16:37:50.166Z,113.07
2018-02-09T16:40:18.630Z,92.10
2018-02-09T16:42:46.309Z,82.37
2018-02-09T16:45:14.079Z,78.37
2018-02-09T16:47:41.713Z,69.83
2018-02-09T16:50:10.159Z,73.60
2018-02-09T16:52:37.770Z,80.03
2018-02-09T16:55:06.629Z,95.07
2018-02-09T16:57:34.273Z,84.83
2018-02-09T17:00:01.961Z,86.33
2018-02-09T17:02:29.873Z,83.57
2018-02-09T17:04:57.646Z,77.47
2018-02-09T17:07:25.325Z,77.80
2018-02-09T17:09:52.959Z,86.93
2018-02-09T17:12:21.439Z,90.80
2018-02-09T17:14:49.130Z,93.07
2018-02-09T17:17:16.771Z,84.50
2018-02-09T17:19:45.316Z,81.30
2018-02-09T17:22:12.983Z,91.67
2018-02-09T17:24:40.660Z,73.87
2018-02-09T17:27:08.352Z,88.13
2018-02-09T17:29:37.015Z,78.57
2018-02-09T17:32:04.758Z,85.03
2018-02-09T17:34:32.437Z,84.27
2018-02-09T17:37:00.350Z,84.03
2018-02-09T17:39:28.038Z,87.90
2018-02-09T17:41:56.508Z,96.50
2018-02-09T17:44:24.227Z,87.00
2018-02-09T17:46:52.588Z,95.67
2018-02-09T17:49:20.276Z,80.40
2018-02-09T17:51:48.049Z,90.53
2018-02-09T17:54:15.756Z,88.10
2018-02-09T17:56:44.918Z,83.97
2018-02-09T17:59:12.657Z,86.07
2018-02-09T18:01:41.099Z,95.87
2018-02-09T18:04:08.802Z,87.10
2018-02-09T18:06:37.239Z,87.47
2018-02-09T18:09:04.901Z,86.70
2018-02-09T18:11:32.621Z,84.17
2018-02-09T18:14:00.277Z,90.37
2018-02-09T18:16:28.690Z,87.83
2018-02-09T18:18:56.333Z,93.93
2018-02-09T18:21:24.739Z,87.93
2018-02-09T18:23:52.752Z,99.77
2018-02-09T18:26:20.430Z,87.30
2018-02-09T18:28:48.090Z,98.00
2018-02-09T18:31:15.776Z,93.60
2018-02-09T18:33:43.421Z,89.23
2018-02-09T18:36:11.155Z,110.23
2018-02-09T18:38:38.871Z,93.63
2018-02-09T18:41:08.161Z,91.30
2018-02-09T18:43:35.869Z,110.33
2018-02-09T18:46:05.284Z,87.40
2018-02-09T18:48:32.952Z,87.37
2018-02-09T18:51:01.500Z,80.87
2018-02-09T18:53:29.233Z,85.53
2018-02-09T18:55:56.907Z,98.93
2018-02-09T18:58:24.558Z,101.43
2018-02-09T19:00:52.230Z,96.97
2018-02-09T19:03:19.888Z,95.63
2018-02-09T19:05:47.567Z,104.47
2018-02-09T19:08:15.300Z,90.37
2018-02-09T19:10:43.726Z,99.30
2018-02-09T19:13:11.408Z,99.43
2018-02-09T19:15:39.059Z,89.70
2018-02-09T19:18:06.777Z,90.17
2018-02-09T19:20:35.636Z,78.70
2018-02-09T19:23:03.374Z,80.90
2018-02-09T19:25:32.133Z,84.53
2018-02-09T19:28:00.652Z,78.10
2018-02-09T19:30:29.083Z,80.03
2018-02-09T19:32:57.551Z,79.17
2018-02-09T19:35:25.353Z,75.97
2018-02-09T19:37:54.029Z,78.43
2018-02-09T19:40:22.486Z,87.10
2018-02-09T19:42:50.344Z,77.97
2018-02-09T19:45:18.507Z,80.83
2018-02-09T19:47:46.306Z,97.73
2018-02-09T19:50:14.036Z,85.87
2018-02-09T19:52:43.282Z,96.10
2018-02-09T19:55:11.005Z,83.97
2018-02-09T19:57:39.123Z,79.83
2018-02-09T20:00:07.904Z,82.27
2018-02-09T20:02:36.408Z,76.30
2018-02-09T20:05:04.198Z,86.27
2018-02-09T20:07:34.600Z,79.77
2018-02-09T20:10:02.400Z,98.43
2018-02-09T20:12:31.708Z,96.23
2018-02-09T20:15:00.595Z,101.13
2018-02-09T20:17:29.138Z,97.80
2018-02-09T20:19:57.009Z,105.17
2018-02-09T20:22:24.740Z,98.67
2018-02-09T20:24:53.275Z,105.63
2018-02-09T20:27:21.378Z,95.93
2018-02-09T20:29:50.981Z,96.47
2018-02-09T20:32:19.104Z,104.30
2018-02-09T20:34:47.643Z,105.60
2018-02-09T20:37:15.593Z,91.03
2018-02-09T20:39:45.027Z,82.97
2018-02-09T20:42:13.795Z,97.80
2018-02-09T20:44:41.898Z,104.70
2018-02-09T20:47:11.188Z,116.47
2018-02-09T20:49:40.275Z,100.73
2018-02-09T20:52:08.063Z,103.00
2018-02-09T20:54:36.116Z,93.87
2018-02-09T20:57:03.993Z,102.53
2018-02-09T20:59:31.776Z,103.10
2018-02-09T21:01:59.617Z,101.43
2018-02-09T21:04:27.369Z,109.27
2018-02-09T21:06:55.889Z,107.60
2018-02-09T21:09:23.784Z,101.70
2018-02-09T21:11:51.550Z,98.00
2018-02-09T21:14:19.306Z,98.17
2018-02-09T21:16:47.268Z,107.37
2018-02-09T21:19:15.623Z,98.37
2018-02-09T21:21:43.385Z,113.17
2018-02-09T21:24:11.910Z,105.90
2018-02-09T21:26:40.066Z,102.23
2018-02-09T21:29:07.768Z,109.73
2018-02-09T21:31:35.515Z,112.23
2018-02-09T21:34:03.254Z,111.93
2018-02-09T21:36:31.768Z,104.57
2018-02-09T21:38:59.514Z,101.07
2018-02-09T21:41:28.128Z,102.33
2018-02-09T21:43:55.851Z,109.70
2018-02-09T21:46:24.395Z,106.17
2018-02-09T21:48:52.044Z,100.83
2018-02-09T21:51:19.744Z,109.13
2018-02-09T21:53:47.381Z,107.83
2018-02-09T21:56:15.041Z,119.03
2018-02-09T21:58:42.661Z,96.87
2018-02-09T22:01:10.354Z,104.17
2018-02-09T22:03:38.829Z,114.20
2018-02-09T22:06:06.450Z,110.60
2018-02-09T22:08:34.104Z,113.90
2018-02-09T22:11:01.713Z,105.87
2018-02-09T22:13:29.716Z,120.03
2018-02-09T22:15:58.109Z,108.93
2018-02-09T22:18:25.747Z,117.67
2018-02-09T22:20:54.917Z,109.40
2018-02-09T22:23:22.555Z,110.50
2018-02-09T22:25:50.323Z,107.33
2018-02-09T22:28:17.938Z,122.23
2018-02-09T22:30:46.761Z,111.17
2018-02-09T22:33:15.158Z,110.93
2018-02-09T22:35:42.788Z,111.60
2018-02-09T22:38:10.448Z,118.93
2018-02-09T22:40:38.098Z,119.77
2018-02-09T22:43:06.156Z,128.70
2018-02-09T22:45:33.778Z,129.90
2018-02-09T22:48:01.557Z,111.20
2018-02-09T22:50:30.035Z,109.50
2018-02-09T22:52:58.436Z,118.60
2018-02-09T22:55:26.842Z,140.40
2018-02-09T22:57:54.461Z,122.73
2018-02-09T23:00:22.065Z,118.57
2018-02-09T23:02:49.696Z,114.77
2018-02-09T23:05:17.357Z,121.63
2018-02-09T23:07:46.479Z,122.93
2018-02-09T23:10:14.881Z,119.03
2018-02-09T23:12:42.479Z,125.13
2018-02-09T23:15:10.093Z,124.40
2018-02-09T23:17:38.472Z,106.87
2018-02-09T23:20:06.903Z,118.63
2018-02-09T23:22:34.803Z,117.03
2018-02-09T23:25:02.464Z,116.93
2018-02-09T23:27:30.096Z,123.47
2018-02-09T23:29:57.789Z,108.63
2018-02-09T23:32:25.419Z,120.17
2018-02-09T23:34:53.047Z,128.30
2018-02-09T23:37:21.457Z,122.77
2018-02-09T23:39:49.826Z,120.53
2018-02-09T23:42:18.685Z,118.77
2018-02-09T23:44:46.299Z,113.13
2018-02-09T23:47:14.843Z,116.93
2018-02-09T23:49:42.541Z,121.23
2018-02-09T23:52:10.911Z,127.97
2018-02-09T23:54:39.312Z,117.83
2018-02-09T23:57:07.691Z,119.03
2018-02-09T23:59:36.112Z,117.43
